sensor_id;sensor_type;location;lat;lon;timestamp;P1;durP1;ratioP1;P2;durP2;ratioP2
5493;SDS011;2769;49.864;8.656;2022-07-10T00:01:48;6.03;;;5.07;;
5493;SDS011;2769;49.864;8.656;2022-07-10T00:04:37;5.03;;;4.53;;
5493;SDS011;2769;49.864;8.656;2022-07-10T00:07:23;4.70;;;4.30;;
5493;SDS011;2769;49.864;8.656;2022-07-10T00:10:10;4.60;;;4.10;;
5493;SDS011;2769;49.864;8.656;2022-07-10T00:12:57;12.70;;;4.10;;
5493;SDS011;2769;49.864;8.656;2022-07-10T00:15:43;5.77;;;4.40;;
5493;SDS011;2769;49.864;8.656;2022-07-10T00:18:30;3.87;;;3.50;;
5493;SDS011;2769;49.864;8.656;2022-07-10T00:21:19;5.50;;;3.87;;
5493;SDS011;2769;49.864;8.656;2022-07-10T00:24:06;8.27;;;3.47;;
5493;SDS011;2769;49.864;8.656;2022-07-10T00:29:46;10.50;;;3.10;;
5493;SDS011;2769;49.864;8.656;2022-07-10T00:32:32;5.20;;;2.90;;
5493;SDS011;2769;49.864;8.656;2022-07-10T00:35:19;3.60;;;3.30;;
5493;SDS011;2769;49.864;8.656;2022-07-10T00:38:07;6.43;;;3.30;;
5493;SDS011;2769;49.864;8.656;2022-07-10T00:40:54;8.50;;;3.20;;
5493;SDS011;2769;49.864;8.656;2022-07-10T00:43:53;3.07;;;2.87;;
5493;SDS011;2769;49.864;8.656;2022-07-10T00:46:41;5.33;;;3.00;;
5493;SDS011;2769;49.864;8.656;2022-07-10T00:49:27;3.00;;;2.80;;
5493;SDS011;2769;49.864;8.656;2022-07-10T00:52:15;5.10;;;2.70;;
5493;SDS011;2769;49.864;8.656;2022-07-10T00:55:04;4.33;;;2.70;;
5493;SDS011;2769;49.864;8.656;2022-07-10T00:57:51;2.83;;;2.50;;
5493;SDS011;2769;49.864;8.656;2022-07-10T01:00:39;5.03;;;3.03;;
5493;SDS011;2769;49.864;8.656;2022-07-10T01:03:26;3.87;;;2.40;;
5493;SDS011;2769;49.864;8.656;2022-07-10T01:06:12;7.80;;;3.17;;
5493;SDS011;2769;49.864;8.656;2022-07-10T01:09:00;3.07;;;2.87;;
5493;SDS011;2769;49.864;8.656;2022-07-10T01:11:47;4.53;;;2.70;;
5493;SDS011;2769;49.864;8.656;2022-07-10T01:14:35;4.53;;;2.73;;
5493;SDS011;2769;49.864;8.656;2022-07-10T01:17:22;6.73;;;3.20;;
5493;SDS011;2769;49.864;8.656;2022-07-10T01:20:10;2.47;;;2.30;;
5493;SDS011;2769;49.864;8.656;2022-07-10T01:22:58;6.37;;;2.23;;
5493;SDS011;2769;49.864;8.656;2022-07-10T01:25:45;6.70;;;2.90;;
5493;SDS011;2769;49.864;8.656;2022-07-10T01:28:31;5.13;;;3.00;;
5493;SDS011;2769;49.864;8.656;2022-07-10T01:31:18;3.33;;;2.53;;
5493;SDS011;2769;49.864;8.656;2022-07-10T01:34:06;4.83;;;2.93;;
5493;SDS011;2769;49.864;8.656;2022-07-10T01:36:53;5.03;;;2.70;;
5493;SDS011;2769;49.864;8.656;2022-07-10T01:39:42;4.67;;;2.83;;
5493;SDS011;2769;49.864;8.656;2022-07-10T01:42:28;7.33;;;3.23;;
5493;SDS011;2769;49.864;8.656;2022-07-10T01:45:16;5.37;;;2.90;;
5493;SDS011;2769;49.864;8.656;2022-07-10T01:48:03;5.50;;;2.90;;
5493;SDS011;2769;49.864;8.656;2022-07-10T01:50:50;8.83;;;3.27;;
5493;SDS011;2769;49.864;8.656;2022-07-10T01:53:37;4.30;;;3.20;;
5493;SDS011;2769;49.864;8.656;2022-07-10T01:56:25;5.30;;;3.40;;
5493;SDS011;2769;49.864;8.656;2022-07-10T01:59:12;6.97;;;3.20;;
5493;SDS011;2769;49.864;8.656;2022-07-10T02:01:58;9.97;;;3.30;;
5493;SDS011;2769;49.864;8.656;2022-07-10T02:04:45;4.37;;;3.40;;
5493;SDS011;2769;49.864;8.656;2022-07-10T02:07:30;9.70;;;3.47;;
5493;SDS011;2769;49.864;8.656;2022-07-10T02:10:17;3.60;;;3.30;;
5493;SDS011;2769;49.864;8.656;2022-07-10T02:13:05;3.73;;;3.03;;
5493;SDS011;2769;49.864;8.656;2022-07-10T02:15:51;3.77;;;3.33;;
5493;SDS011;2769;49.864;8.656;2022-07-10T02:18:38;3.07;;;2.80;;
5493;SDS011;2769;49.864;8.656;2022-07-10T02:21:26;4.03;;;2.30;;
5493;SDS011;2769;49.864;8.656;2022-07-10T02:24:12;2.90;;;2.60;;
5493;SDS011;2769;49.864;8.656;2022-07-10T02:26:59;5.17;;;3.00;;
5493;SDS011;2769;49.864;8.656;2022-07-10T02:29:47;6.10;;;2.67;;
5493;SDS011;2769;49.864;8.656;2022-07-10T02:32:33;2.90;;;2.70;;
5493;SDS011;2769;49.864;8.656;2022-07-10T02:35:19;6.00;;;2.53;;
5493;SDS011;2769;49.864;8.656;2022-07-10T02:38:06;3.50;;;2.57;;
5493;SDS011;2769;49.864;8.656;2022-07-10T02:40:52;3.90;;;2.80;;
5493;SDS011;2769;49.864;8.656;2022-07-10T02:43:39;3.97;;;2.73;;
5493;SDS011;2769;49.864;8.656;2022-07-10T02:46:27;5.93;;;2.50;;
5493;SDS011;2769;49.864;8.656;2022-07-10T02:49:13;3.07;;;2.70;;
5493;SDS011;2769;49.864;8.656;2022-07-10T02:52:00;6.33;;;2.90;;
5493;SDS011;2769;49.864;8.656;2022-07-10T02:54:46;3.03;;;2.70;;
5493;SDS011;2769;49.864;8.656;2022-07-10T02:57:33;5.40;;;2.63;;
5493;SDS011;2769;49.864;8.656;2022-07-10T03:00:19;5.50;;;2.73;;
5493;SDS011;2769;49.864;8.656;2022-07-10T03:03:07;3.70;;;2.70;;
5493;SDS011;2769;49.864;8.656;2022-07-10T03:05:53;2.90;;;2.70;;
5493;SDS011;2769;49.864;8.656;2022-07-10T03:08:40;3.80;;;2.83;;
5493;SDS011;2769;49.864;8.656;2022-07-10T03:11:27;4.33;;;2.30;;
5493;SDS011;2769;49.864;8.656;2022-07-10T03:14:13;3.13;;;2.40;;
5493;SDS011;2769;49.864;8.656;2022-07-10T03:17:01;8.53;;;2.60;;
5493;SDS011;2769;49.864;8.656;2022-07-10T03:19:49;5.90;;;2.27;;
5493;SDS011;2769;49.864;8.656;2022-07-10T03:22:36;4.20;;;2.63;;
5493;SDS011;2769;49.864;8.656;2022-07-10T03:25:23;4.03;;;2.60;;
5493;SDS011;2769;49.864;8.656;2022-07-10T03:28:09;8.13;;;2.30;;
5493;SDS011;2769;49.864;8.656;2022-07-10T03:30:56;3.90;;;2.50;;
5493;SDS011;2769;49.864;8.656;2022-07-10T03:33:43;7.37;;;2.97;;
5493;SDS011;2769;49.864;8.656;2022-07-10T03:36:31;7.47;;;2.67;;
5493;SDS011;2769;49.864;8.656;2022-07-10T03:39:17;3.43;;;2.67;;
5493;SDS011;2769;49.864;8.656;2022-07-10T03:42:04;5.47;;;2.90;;
5493;SDS011;2769;49.864;8.656;2022-07-10T03:44:51;4.50;;;2.50;;
5493;SDS011;2769;49.864;8.656;2022-07-10T03:47:38;3.57;;;2.50;;
5493;SDS011;2769;49.864;8.656;2022-07-10T03:50:24;3.27;;;2.60;;
5493;SDS011;2769;49.864;8.656;2022-07-10T03:53:12;4.47;;;2.30;;
5493;SDS011;2769;49.864;8.656;2022-07-10T03:55:59;5.00;;;2.43;;
5493;SDS011;2769;49.864;8.656;2022-07-10T03:58:46;4.83;;;2.67;;
5493;SDS011;2769;49.864;8.656;2022-07-10T04:01:31;4.47;;;2.60;;
5493;SDS011;2769;49.864;8.656;2022-07-10T04:04:18;2.30;;;2.10;;
5493;SDS011;2769;49.864;8.656;2022-07-10T04:07:06;3.63;;;2.50;;
5493;SDS011;2769;49.864;8.656;2022-07-10T04:09:53;10.67;;;2.23;;
5493;SDS011;2769;49.864;8.656;2022-07-10T04:12:40;8.87;;;2.43;;
5493;SDS011;2769;49.864;8.656;2022-07-10T04:15:27;7.20;;;2.70;;
5493;SDS011;2769;49.864;8.656;2022-07-10T04:18:13;4.03;;;2.40;;
5493;SDS011;2769;49.864;8.656;2022-07-10T04:21:00;5.13;;;2.47;;
5493;SDS011;2769;49.864;8.656;2022-07-10T04:23:47;6.10;;;2.50;;
5493;SDS011;2769;49.864;8.656;2022-07-10T04:26:34;3.47;;;3.07;;
5493;SDS011;2769;49.864;8.656;2022-07-10T04:29:21;6.00;;;2.20;;
5493;SDS011;2769;49.864;8.656;2022-07-10T04:32:07;3.30;;;2.20;;
5493;SDS011;2769;49.864;8.656;2022-07-10T04:34:54;3.30;;;2.30;;
5493;SDS011;2769;49.864;8.656;2022-07-10T04:37:41;6.13;;;2.47;;
5493;SDS011;2769;49.864;8.656;2022-07-10T04:40:27;3.60;;;2.20;;
5493;SDS011;2769;49.864;8.656;2022-07-10T04:43:15;3.57;;;2.10;;
5493;SDS011;2769;49.864;8.656;2022-07-10T04:46:02;4.50;;;2.33;;
5493;SDS011;2769;49.864;8.656;2022-07-10T04:48:49;4.30;;;1.90;;
5493;SDS011;2769;49.864;8.656;2022-07-10T04:51:36;4.60;;;2.37;;
5493;SDS011;2769;49.864;8.656;2022-07-10T04:54:30;4.10;;;2.33;;
5493;SDS011;2769;49.864;8.656;2022-07-10T04:57:17;4.67;;;2.20;;
5493;SDS011;2769;49.864;8.656;2022-07-10T05:00:05;3.07;;;1.90;;
5493;SDS011;2769;49.864;8.656;2022-07-10T05:02:52;2.50;;;1.93;;
5493;SDS011;2769;49.864;8.656;2022-07-10T05:05:39;4.10;;;2.13;;
5493;SDS011;2769;49.864;8.656;2022-07-10T05:08:26;6.00;;;1.90;;
5493;SDS011;2769;49.864;8.656;2022-07-10T05:11:12;3.30;;;1.70;;
5493;SDS011;2769;49.864;8.656;2022-07-10T05:13:58;3.30;;;2.17;;
5493;SDS011;2769;49.864;8.656;2022-07-10T05:16:46;7.13;;;2.00;;
5493;SDS011;2769;49.864;8.656;2022-07-10T05:19:33;2.03;;;1.63;;
5493;SDS011;2769;49.864;8.656;2022-07-10T05:22:20;3.03;;;2.30;;
5493;SDS011;2769;49.864;8.656;2022-07-10T05:25:06;2.40;;;1.80;;
5493;SDS011;2769;49.864;8.656;2022-07-10T05:27:53;5.67;;;1.87;;
5493;SDS011;2769;49.864;8.656;2022-07-10T05:30:39;7.40;;;1.77;;
5493;SDS011;2769;49.864;8.656;2022-07-10T05:33:27;1.70;;;1.53;;
5493;SDS011;2769;49.864;8.656;2022-07-10T05:36:14;1.83;;;1.70;;
5493;SDS011;2769;49.864;8.656;2022-07-10T05:39:01;2.50;;;1.50;;
5493;SDS011;2769;49.864;8.656;2022-07-10T05:41:47;3.97;;;1.90;;
5493;SDS011;2769;49.864;8.656;2022-07-10T05:44:33;3.17;;;1.80;;
5493;SDS011;2769;49.864;8.656;2022-07-10T05:47:20;2.60;;;2.00;;
5493;SDS011;2769;49.864;8.656;2022-07-10T05:50:08;4.10;;;1.90;;
5493;SDS011;2769;49.864;8.656;2022-07-10T05:52:56;3.77;;;1.83;;
5493;SDS011;2769;49.864;8.656;2022-07-10T05:55:42;5.73;;;1.77;;
5493;SDS011;2769;49.864;8.656;2022-07-10T05:58:29;5.10;;;1.70;;
5493;SDS011;2769;49.864;8.656;2022-07-10T06:01:15;10.60;;;1.90;;
5493;SDS011;2769;49.864;8.656;2022-07-10T06:04:02;5.90;;;1.43;;
5493;SDS011;2769;49.864;8.656;2022-07-10T06:06:51;6.73;;;1.60;;
5493;SDS011;2769;49.864;8.656;2022-07-10T06:09:37;3.57;;;1.70;;
5493;SDS011;2769;49.864;8.656;2022-07-10T06:12:24;3.87;;;1.37;;
5493;SDS011;2769;49.864;8.656;2022-07-10T06:15:11;3.83;;;1.60;;
5493;SDS011;2769;49.864;8.656;2022-07-10T06:18:03;3.53;;;1.33;;
5493;SDS011;2769;49.864;8.656;2022-07-10T06:20:50;2.70;;;1.30;;
5493;SDS011;2769;49.864;8.656;2022-07-10T06:23:38;2.03;;;1.40;;
5493;SDS011;2769;49.864;8.656;2022-07-10T06:26:25;4.87;;;1.30;;
5493;SDS011;2769;49.864;8.656;2022-07-10T06:29:12;1.70;;;1.27;;
5493;SDS011;2769;49.864;8.656;2022-07-10T06:31:59;3.50;;;1.60;;
5493;SDS011;2769;49.864;8.656;2022-07-10T06:34:46;1.80;;;1.33;;
5493;SDS011;2769;49.864;8.656;2022-07-10T06:37:32;2.40;;;1.53;;
5493;SDS011;2769;49.864;8.656;2022-07-10T06:40:21;4.97;;;1.57;;
5493;SDS011;2769;49.864;8.656;2022-07-10T06:43:08;4.70;;;1.10;;
5493;SDS011;2769;49.864;8.656;2022-07-10T06:45:54;1.70;;;1.00;;
5493;SDS011;2769;49.864;8.656;2022-07-10T06:48:42;10.73;;;1.17;;
5493;SDS011;2769;49.864;8.656;2022-07-10T06:51:28;4.40;;;1.60;;
5493;SDS011;2769;49.864;8.656;2022-07-10T06:54:14;2.47;;;1.30;;
5493;SDS011;2769;49.864;8.656;2022-07-10T06:57:02;1.20;;;1.00;;
5493;SDS011;2769;49.864;8.656;2022-07-10T06:59:50;4.50;;;1.50;;
5493;SDS011;2769;49.864;8.656;2022-07-10T07:02:37;3.20;;;1.00;;
5493;SDS011;2769;49.864;8.656;2022-07-10T07:05:25;4.33;;;0.90;;
5493;SDS011;2769;49.864;8.656;2022-07-10T07:08:11;1.90;;;1.27;;
5493;SDS011;2769;49.864;8.656;2022-07-10T07:10:58;7.63;;;1.30;;
5493;SDS011;2769;49.864;8.656;2022-07-10T07:13:46;4.20;;;1.10;;
5493;SDS011;2769;49.864;8.656;2022-07-10T07:16:32;1.73;;;1.20;;
5493;SDS011;2769;49.864;8.656;2022-07-10T07:19:27;1.20;;;1.10;;
5493;SDS011;2769;49.864;8.656;2022-07-10T07:22:33;1.70;;;0.90;;
5493;SDS011;2769;49.864;8.656;2022-07-10T07:25:38;3.63;;;1.00;;
5493;SDS011;2769;49.864;8.656;2022-07-10T07:28:27;2.70;;;1.20;;
5493;SDS011;2769;49.864;8.656;2022-07-10T07:31:15;3.60;;;1.20;;
5493;SDS011;2769;49.864;8.656;2022-07-10T07:34:03;1.10;;;1.00;;
5493;SDS011;2769;49.864;8.656;2022-07-10T07:36:50;5.27;;;0.97;;
5493;SDS011;2769;49.864;8.656;2022-07-10T07:39:37;2.97;;;0.90;;
5493;SDS011;2769;49.864;8.656;2022-07-10T07:42:23;1.90;;;0.80;;
5493;SDS011;2769;49.864;8.656;2022-07-10T07:45:10;2.53;;;0.90;;
5493;SDS011;2769;49.864;8.656;2022-07-10T07:47:58;3.23;;;1.00;;
5493;SDS011;2769;49.864;8.656;2022-07-10T07:50:46;1.70;;;0.90;;
5493;SDS011;2769;49.864;8.656;2022-07-10T07:53:32;2.70;;;0.93;;
5493;SDS011;2769;49.864;8.656;2022-07-10T07:56:19;2.77;;;0.90;;
5493;SDS011;2769;49.864;8.656;2022-07-10T07:59:06;3.80;;;1.17;;
5493;SDS011;2769;49.864;8.656;2022-07-10T08:01:52;2.57;;;1.00;;
5493;SDS011;2769;49.864;8.656;2022-07-10T08:04:40;4.00;;;0.90;;
5493;SDS011;2769;49.864;8.656;2022-07-10T08:07:34;3.60;;;0.90;;
5493;SDS011;2769;49.864;8.656;2022-07-10T08:10:21;3.03;;;1.17;;
5493;SDS011;2769;49.864;8.656;2022-07-10T08:13:09;1.00;;;0.70;;
5493;SDS011;2769;49.864;8.656;2022-07-10T08:15:56;3.53;;;0.90;;
5493;SDS011;2769;49.864;8.656;2022-07-10T08:18:52;1.33;;;0.90;;
5493;SDS011;2769;49.864;8.656;2022-07-10T08:21:40;3.47;;;1.10;;
5493;SDS011;2769;49.864;8.656;2022-07-10T08:24:26;4.77;;;1.10;;
5493;SDS011;2769;49.864;8.656;2022-07-10T08:27:13;1.23;;;0.83;;
5493;SDS011;2769;49.864;8.656;2022-07-10T08:30:00;4.33;;;1.10;;
5493;SDS011;2769;49.864;8.656;2022-07-10T08:32:47;2.70;;;1.30;;
5493;SDS011;2769;49.864;8.656;2022-07-10T08:35:33;2.10;;;1.00;;
5493;SDS011;2769;49.864;8.656;2022-07-10T08:38:21;1.47;;;1.07;;
5493;SDS011;2769;49.864;8.656;2022-07-10T08:41:08;2.00;;;1.00;;
5493;SDS011;2769;49.864;8.656;2022-07-10T08:43:59;4.90;;;0.90;;
5493;SDS011;2769;49.864;8.656;2022-07-10T08:46:45;4.23;;;1.10;;
5493;SDS011;2769;49.864;8.656;2022-07-10T08:49:32;0.80;;;0.80;;
5493;SDS011;2769;49.864;8.656;2022-07-10T08:52:25;2.10;;;0.70;;
5493;SDS011;2769;49.864;8.656;2022-07-10T08:55:14;1.43;;;1.00;;
5493;SDS011;2769;49.864;8.656;2022-07-10T08:58:01;1.27;;;0.70;;
5493;SDS011;2769;49.864;8.656;2022-07-10T09:00:49;2.20;;;0.97;;
5493;SDS011;2769;49.864;8.656;2022-07-10T09:03:36;1.20;;;0.70;;
5493;SDS011;2769;49.864;8.656;2022-07-10T09:06:23;1.73;;;0.90;;
5493;SDS011;2769;49.864;8.656;2022-07-10T09:09:15;1.90;;;0.80;;
5493;SDS011;2769;49.864;8.656;2022-07-10T09:12:04;1.50;;;0.90;;
5493;SDS011;2769;49.864;8.656;2022-07-10T09:15:06;1.00;;;0.90;;
5493;SDS011;2769;49.864;8.656;2022-07-10T09:18:02;5.23;;;1.20;;
5493;SDS011;2769;49.864;8.656;2022-07-10T09:20:52;2.90;;;0.97;;
5493;SDS011;2769;49.864;8.656;2022-07-10T09:23:38;2.93;;;1.00;;
5493;SDS011;2769;49.864;8.656;2022-07-10T09:26:25;1.00;;;0.90;;
5493;SDS011;2769;49.864;8.656;2022-07-10T09:29:14;1.93;;;1.10;;
5493;SDS011;2769;49.864;8.656;2022-07-10T09:32:01;2.60;;;0.87;;
5493;SDS011;2769;49.864;8.656;2022-07-10T09:34:49;0.90;;;0.73;;
5493;SDS011;2769;49.864;8.656;2022-07-10T09:37:57;2.67;;;1.00;;
5493;SDS011;2769;49.864;8.656;2022-07-10T09:40:44;2.93;;;1.10;;
5493;SDS011;2769;49.864;8.656;2022-07-10T09:43:42;1.70;;;0.93;;
5493;SDS011;2769;49.864;8.656;2022-07-10T09:46:32;1.30;;;1.00;;
5493;SDS011;2769;49.864;8.656;2022-07-10T09:49:19;1.43;;;0.90;;
5493;SDS011;2769;49.864;8.656;2022-07-10T09:52:06;1.20;;;1.10;;
5493;SDS011;2769;49.864;8.656;2022-07-10T09:54:53;4.47;;;0.97;;
5493;SDS011;2769;49.864;8.656;2022-07-10T09:57:40;1.33;;;1.23;;
5493;SDS011;2769;49.864;8.656;2022-07-10T10:00:30;1.50;;;0.93;;
5493;SDS011;2769;49.864;8.656;2022-07-10T10:03:19;4.57;;;1.10;;
5493;SDS011;2769;49.864;8.656;2022-07-10T10:06:09;2.70;;;0.90;;
5493;SDS011;2769;49.864;8.656;2022-07-10T10:09:02;3.87;;;0.90;;
5493;SDS011;2769;49.864;8.656;2022-07-10T10:11:54;2.77;;;1.17;;
5493;SDS011;2769;49.864;8.656;2022-07-10T10:14:43;3.33;;;1.10;;
5493;SDS011;2769;49.864;8.656;2022-07-10T10:17:30;1.63;;;1.17;;
5493;SDS011;2769;49.864;8.656;2022-07-10T10:20:19;2.73;;;1.00;;
5493;SDS011;2769;49.864;8.656;2022-07-10T10:23:26;2.23;;;1.00;;
5493;SDS011;2769;49.864;8.656;2022-07-10T10:26:15;2.43;;;1.10;;
5493;SDS011;2769;49.864;8.656;2022-07-10T10:29:03;2.90;;;1.00;;
5493;SDS011;2769;49.864;8.656;2022-07-10T10:31:51;4.80;;;0.97;;
5493;SDS011;2769;49.864;8.656;2022-07-10T10:34:39;2.03;;;1.00;;
5493;SDS011;2769;49.864;8.656;2022-07-10T10:37:35;1.53;;;1.00;;
5493;SDS011;2769;49.864;8.656;2022-07-10T10:40:30;1.10;;;0.90;;
5493;SDS011;2769;49.864;8.656;2022-07-10T10:43:18;2.90;;;1.27;;
5493;SDS011;2769;49.864;8.656;2022-07-10T10:46:13;1.43;;;0.97;;
5493;SDS011;2769;49.864;8.656;2022-07-10T10:49:10;1.63;;;1.03;;
5493;SDS011;2769;49.864;8.656;2022-07-10T10:51:57;1.77;;;1.10;;
5493;SDS011;2769;49.864;8.656;2022-07-10T10:57:53;1.47;;;1.17;;
5493;SDS011;2769;49.864;8.656;2022-07-10T11:01:02;1.57;;;1.00;;
5493;SDS011;2769;49.864;8.656;2022-07-10T11:07:04;1.40;;;1.20;;
5493;SDS011;2769;49.864;8.656;2022-07-10T11:09:51;2.30;;;1.10;;
5493;SDS011;2769;49.864;8.656;2022-07-10T11:13:14;3.40;;;1.77;;
5493;SDS011;2769;49.864;8.656;2022-07-10T11:16:02;2.23;;;1.13;;
5493;SDS011;2769;49.864;8.656;2022-07-10T11:18:58;2.93;;;1.33;;
5493;SDS011;2769;49.864;8.656;2022-07-10T11:21:46;1.63;;;1.23;;
5493;SDS011;2769;49.864;8.656;2022-07-10T11:24:40;3.10;;;1.33;;
5493;SDS011;2769;49.864;8.656;2022-07-10T11:27:52;3.53;;;1.10;;
5493;SDS011;2769;49.864;8.656;2022-07-10T11:30:52;5.00;;;1.40;;
5493;SDS011;2769;49.864;8.656;2022-07-10T11:33:39;3.73;;;1.33;;
5493;SDS011;2769;49.864;8.656;2022-07-10T11:36:28;1.57;;;1.10;;
5493;SDS011;2769;49.864;8.656;2022-07-10T11:39:16;1.57;;;1.00;;
5493;SDS011;2769;49.864;8.656;2022-07-10T11:42:03;4.57;;;1.30;;
5493;SDS011;2769;49.864;8.656;2022-07-10T11:44:51;1.77;;;0.90;;
5493;SDS011;2769;49.864;8.656;2022-07-10T11:47:38;3.33;;;1.53;;
5493;SDS011;2769;49.864;8.656;2022-07-10T11:50:25;3.27;;;1.20;;
5493;SDS011;2769;49.864;8.656;2022-07-10T11:53:12;3.57;;;1.50;;
5493;SDS011;2769;49.864;8.656;2022-07-10T11:55:59;3.57;;;1.40;;
5493;SDS011;2769;49.864;8.656;2022-07-10T11:58:52;2.97;;;1.57;;
5493;SDS011;2769;49.864;8.656;2022-07-10T12:01:42;2.60;;;1.50;;
5493;SDS011;2769;49.864;8.656;2022-07-10T12:04:30;2.50;;;1.20;;
5493;SDS011;2769;49.864;8.656;2022-07-10T12:07:19;4.90;;;1.20;;
5493;SDS011;2769;49.864;8.656;2022-07-10T12:10:07;2.57;;;1.10;;
5493;SDS011;2769;49.864;8.656;2022-07-10T12:13:02;3.33;;;1.30;;
5493;SDS011;2769;49.864;8.656;2022-07-10T12:15:50;1.83;;;1.40;;
5493;SDS011;2769;49.864;8.656;2022-07-10T12:18:38;1.90;;;1.50;;
5493;SDS011;2769;49.864;8.656;2022-07-10T12:21:28;2.27;;;1.47;;
5493;SDS011;2769;49.864;8.656;2022-07-10T12:24:16;1.93;;;1.50;;
5493;SDS011;2769;49.864;8.656;2022-07-10T12:27:04;6.80;;;2.10;;
5493;SDS011;2769;49.864;8.656;2022-07-10T12:29:59;3.90;;;1.13;;
5493;SDS011;2769;49.864;8.656;2022-07-10T12:32:47;6.10;;;1.67;;
5493;SDS011;2769;49.864;8.656;2022-07-10T12:35:46;4.67;;;2.03;;
5493;SDS011;2769;49.864;8.656;2022-07-10T12:38:34;2.83;;;1.57;;
5493;SDS011;2769;49.864;8.656;2022-07-10T12:41:21;3.13;;;1.53;;
5493;SDS011;2769;49.864;8.656;2022-07-10T12:44:09;3.03;;;1.60;;
5493;SDS011;2769;49.864;8.656;2022-07-10T12:46:59;3.63;;;1.13;;
5493;SDS011;2769;49.864;8.656;2022-07-10T12:49:47;5.37;;;1.50;;
5493;SDS011;2769;49.864;8.656;2022-07-10T12:52:36;2.23;;;1.33;;
5493;SDS011;2769;49.864;8.656;2022-07-10T12:55:23;5.20;;;1.40;;
5493;SDS011;2769;49.864;8.656;2022-07-10T12:58:20;3.47;;;1.60;;
5493;SDS011;2769;49.864;8.656;2022-07-10T13:01:06;5.33;;;1.30;;
5493;SDS011;2769;49.864;8.656;2022-07-10T13:03:57;1.93;;;1.27;;
5493;SDS011;2769;49.864;8.656;2022-07-10T13:06:45;5.40;;;1.60;;
5493;SDS011;2769;49.864;8.656;2022-07-10T13:09:33;5.17;;;1.50;;
5493;SDS011;2769;49.864;8.656;2022-07-10T13:12:25;2.40;;;1.20;;
5493;SDS011;2769;49.864;8.656;2022-07-10T13:15:12;3.50;;;1.10;;
5493;SDS011;2769;49.864;8.656;2022-07-10T13:18:12;4.70;;;1.33;;
5493;SDS011;2769;49.864;8.656;2022-07-10T13:20:59;1.47;;;1.30;;
5493;SDS011;2769;49.864;8.656;2022-07-10T13:23:47;11.50;;;1.83;;
5493;SDS011;2769;49.864;8.656;2022-07-10T13:26:35;4.10;;;1.47;;
5493;SDS011;2769;49.864;8.656;2022-07-10T13:29:22;1.77;;;0.87;;
5493;SDS011;2769;49.864;8.656;2022-07-10T13:32:08;3.00;;;1.20;;
5493;SDS011;2769;49.864;8.656;2022-07-10T13:34:55;2.00;;;0.80;;
5493;SDS011;2769;49.864;8.656;2022-07-10T13:37:42;7.07;;;1.63;;
5493;SDS011;2769;49.864;8.656;2022-07-10T13:40:29;5.00;;;1.33;;
5493;SDS011;2769;49.864;8.656;2022-07-10T13:43:18;2.70;;;1.30;;
5493;SDS011;2769;49.864;8.656;2022-07-10T13:46:06;1.20;;;1.10;;
5493;SDS011;2769;49.864;8.656;2022-07-10T13:48:52;2.43;;;1.27;;
5493;SDS011;2769;49.864;8.656;2022-07-10T13:51:39;2.47;;;1.00;;
5493;SDS011;2769;49.864;8.656;2022-07-10T13:54:25;3.33;;;1.00;;
5493;SDS011;2769;49.864;8.656;2022-07-10T13:57:12;1.33;;;1.23;;
5493;SDS011;2769;49.864;8.656;2022-07-10T14:00:00;5.90;;;1.30;;
5493;SDS011;2769;49.864;8.656;2022-07-10T14:02:47;4.73;;;1.77;;
5493;SDS011;2769;49.864;8.656;2022-07-10T14:05:33;4.50;;;1.27;;
5493;SDS011;2769;49.864;8.656;2022-07-10T14:08:20;1.40;;;1.10;;
5493;SDS011;2769;49.864;8.656;2022-07-10T14:11:06;6.10;;;1.53;;
5493;SDS011;2769;49.864;8.656;2022-07-10T14:13:53;3.63;;;1.10;;
5493;SDS011;2769;49.864;8.656;2022-07-10T14:16:41;3.90;;;1.13;;
5493;SDS011;2769;49.864;8.656;2022-07-10T14:19:28;1.80;;;1.13;;
5493;SDS011;2769;49.864;8.656;2022-07-10T14:22:15;3.17;;;1.20;;
5493;SDS011;2769;49.864;8.656;2022-07-10T14:25:01;1.50;;;0.97;;
5493;SDS011;2769;49.864;8.656;2022-07-10T14:27:48;4.93;;;1.03;;
5493;SDS011;2769;49.864;8.656;2022-07-10T14:30:35;1.80;;;1.10;;
5493;SDS011;2769;49.864;8.656;2022-07-10T14:33:23;1.20;;;1.00;;
5493;SDS011;2769;49.864;8.656;2022-07-10T14:36:09;0.80;;;0.80;;
5493;SDS011;2769;49.864;8.656;2022-07-10T14:38:56;3.00;;;1.00;;
5493;SDS011;2769;49.864;8.656;2022-07-10T14:41:43;2.20;;;0.93;;
5493;SDS011;2769;49.864;8.656;2022-07-10T14:44:30;2.60;;;1.20;;
5493;SDS011;2769;49.864;8.656;2022-07-10T14:47:18;1.83;;;1.00;;
5493;SDS011;2769;49.864;8.656;2022-07-10T14:50:06;4.00;;;0.97;;
5493;SDS011;2769;49.864;8.656;2022-07-10T14:52:53;2.27;;;0.80;;
5493;SDS011;2769;49.864;8.656;2022-07-10T14:55:40;2.83;;;1.07;;
5493;SDS011;2769;49.864;8.656;2022-07-10T14:58:27;1.23;;;0.93;;
5493;SDS011;2769;49.864;8.656;2022-07-10T15:01:13;3.70;;;0.77;;
5493;SDS011;2769;49.864;8.656;2022-07-10T15:04:00;5.77;;;1.07;;
5493;SDS011;2769;49.864;8.656;2022-07-10T15:06:48;3.53;;;1.00;;
5493;SDS011;2769;49.864;8.656;2022-07-10T15:09:35;2.30;;;1.00;;
5493;SDS011;2769;49.864;8.656;2022-07-10T15:12:22;1.47;;;1.30;;
5493;SDS011;2769;49.864;8.656;2022-07-10T15:15:08;3.20;;;1.13;;
5493;SDS011;2769;49.864;8.656;2022-07-10T15:17:55;6.53;;;1.10;;
5493;SDS011;2769;49.864;8.656;2022-07-10T15:20:43;1.80;;;1.70;;
5493;SDS011;2769;49.864;8.656;2022-07-10T15:23:31;2.50;;;1.60;;
5493;SDS011;2769;49.864;8.656;2022-07-10T15:26:18;1.50;;;1.10;;
5493;SDS011;2769;49.864;8.656;2022-07-10T15:29:04;2.23;;;1.10;;
5493;SDS011;2769;49.864;8.656;2022-07-10T15:31:51;1.77;;;1.10;;
5493;SDS011;2769;49.864;8.656;2022-07-10T15:34:43;3.33;;;1.50;;
5493;SDS011;2769;49.864;8.656;2022-07-10T15:37:29;1.30;;;1.20;;
5493;SDS011;2769;49.864;8.656;2022-07-10T15:40:17;2.70;;;1.17;;
5493;SDS011;2769;49.864;8.656;2022-07-10T15:43:04;1.73;;;1.40;;
5493;SDS011;2769;49.864;8.656;2022-07-10T15:45:52;3.90;;;1.40;;
5493;SDS011;2769;49.864;8.656;2022-07-10T15:48:40;1.20;;;1.10;;
5493;SDS011;2769;49.864;8.656;2022-07-10T15:51:27;1.47;;;1.33;;
5493;SDS011;2769;49.864;8.656;2022-07-10T15:54:14;0.97;;;0.97;;
5493;SDS011;2769;49.864;8.656;2022-07-10T15:57:02;2.10;;;1.10;;
5493;SDS011;2769;49.864;8.656;2022-07-10T15:59:49;4.77;;;1.30;;
5493;SDS011;2769;49.864;8.656;2022-07-10T16:02:36;1.20;;;1.10;;
5493;SDS011;2769;49.864;8.656;2022-07-10T16:05:22;1.80;;;1.10;;
5493;SDS011;2769;49.864;8.656;2022-07-10T16:08:09;1.00;;;0.90;;
5493;SDS011;2769;49.864;8.656;2022-07-10T16:10:56;0.97;;;0.90;;
5493;SDS011;2769;49.864;8.656;2022-07-10T16:13:44;2.70;;;1.00;;
5493;SDS011;2769;49.864;8.656;2022-07-10T16:16:30;2.77;;;0.90;;
5493;SDS011;2769;49.864;8.656;2022-07-10T16:19:18;0.90;;;0.90;;
5493;SDS011;2769;49.864;8.656;2022-07-10T16:22:05;1.27;;;1.17;;
5493;SDS011;2769;49.864;8.656;2022-07-10T16:24:52;1.27;;;1.00;;
5493;SDS011;2769;49.864;8.656;2022-07-10T16:27:56;5.63;;;1.63;;
5493;SDS011;2769;49.864;8.656;2022-07-10T16:30:44;1.20;;;1.20;;
5493;SDS011;2769;49.864;8.656;2022-07-10T16:33:31;2.50;;;1.00;;
5493;SDS011;2769;49.864;8.656;2022-07-10T16:36:18;2.20;;;1.00;;
5493;SDS011;2769;49.864;8.656;2022-07-10T16:39:05;5.20;;;2.63;;
5493;SDS011;2769;49.864;8.656;2022-07-10T16:42:00;1.97;;;1.57;;
5493;SDS011;2769;49.864;8.656;2022-07-10T16:44:46;1.43;;;1.33;;
5493;SDS011;2769;49.864;8.656;2022-07-10T16:47:34;0.97;;;0.97;;
5493;SDS011;2769;49.864;8.656;2022-07-10T16:50:20;1.33;;;1.23;;
5493;SDS011;2769;49.864;8.656;2022-07-10T16:53:07;1.60;;;1.50;;
5493;SDS011;2769;49.864;8.656;2022-07-10T16:55:54;1.70;;;1.60;;
5493;SDS011;2769;49.864;8.656;2022-07-10T16:58:41;1.30;;;1.20;;
5493;SDS011;2769;49.864;8.656;2022-07-10T17:01:28;1.97;;;1.70;;
5493;SDS011;2769;49.864;8.656;2022-07-10T17:04:16;1.60;;;1.50;;
5493;SDS011;2769;49.864;8.656;2022-07-10T17:07:20;1.60;;;1.50;;
5493;SDS011;2769;49.864;8.656;2022-07-10T17:10:07;1.37;;;1.30;;
5493;SDS011;2769;49.864;8.656;2022-07-10T17:12:55;1.90;;;1.80;;
5493;SDS011;2769;49.864;8.656;2022-07-10T17:15:41;1.50;;;1.40;;
5493;SDS011;2769;49.864;8.656;2022-07-10T17:18:28;2.30;;;1.60;;
5493;SDS011;2769;49.864;8.656;2022-07-10T17:21:17;1.57;;;1.47;;
5493;SDS011;2769;49.864;8.656;2022-07-10T17:24:24;1.70;;;1.60;;
5493;SDS011;2769;49.864;8.656;2022-07-10T17:27:11;2.47;;;1.67;;
5493;SDS011;2769;49.864;8.656;2022-07-10T17:30:00;2.70;;;2.20;;
5493;SDS011;2769;49.864;8.656;2022-07-10T17:32:47;2.20;;;2.10;;
5493;SDS011;2769;49.864;8.656;2022-07-10T17:35:41;2.00;;;1.90;;